createdAt,value
2023-02-08T00:00:53.893Z,33.65
2023-02-08T00:03:20.688Z,36.73
2023-02-08T00:05:47.442Z,39.50
2023-02-08T00:08:14.238Z,47.53
2023-02-08T00:10:41.210Z,48.47
2023-02-08T00:13:08.242Z,40.67
2023-02-08T00:15:35.412Z,41.47
2023-02-08T00:18:02.216Z,42.97
2023-02-08T00:20:28.931Z,43.60
2023-02-08T00:22:56.417Z,38.75
2023-02-08T00:25:23.172Z,44.40
2023-02-08T00:27:49.938Z,42.57
2023-02-08T00:30:16.723Z,50.67
2023-02-08T00:32:43.437Z,49.13
2023-02-08T00:35:10.177Z,42.22
2023-02-08T00:37:36.967Z,48.60
2023-02-08T00:40:05.890Z,42.23
2023-02-08T00:42:33.219Z,42.80
2023-02-08T00:45:00.103Z,46.17
2023-02-08T00:47:27.184Z,44.40
2023-02-08T00:49:53.845Z,48.58
2023-02-08T00:52:20.773Z,40.87
2023-02-08T00:54:47.769Z,44.15
2023-02-08T00:57:15.165Z,43.83
2023-02-08T00:59:41.897Z,41.88
2023-02-08T01:02:08.690Z,39.35
2023-02-08T01:04:35.850Z,42.77
2023-02-08T01:07:02.603Z,40.75
2023-02-08T01:09:29.366Z,44.55
2023-02-08T01:11:56.074Z,41.33
2023-02-08T01:14:22.911Z,39.50
2023-02-08T01:16:49.646Z,44.80
2023-02-08T01:19:17.297Z,46.40
2023-02-08T01:21:44.450Z,46.10
2023-02-08T01:24:12.092Z,43.40
2023-02-08T01:26:38.975Z,46.97
2023-02-08T01:29:05.872Z,44.60
2023-02-08T01:31:35.509Z,44.90
2023-02-08T01:34:03.922Z,38.55
2023-02-08T01:36:32.230Z,46.92
2023-02-08T01:38:59.120Z,41.10
2023-02-08T01:41:28.762Z,44.90
2023-02-08T01:44:07.440Z,43.30
2023-02-08T01:46:36.401Z,46.08
2023-02-08T01:49:13.282Z,45.28
2023-02-08T01:51:45.713Z,42.83
2023-02-08T01:54:13.190Z,37.83
2023-02-08T01:56:42.831Z,41.45
2023-02-08T01:59:13.875Z,38.75
2023-02-08T02:01:41.913Z,44.45
2023-02-08T02:04:09.006Z,44.67
2023-02-08T02:06:40.061Z,42.47
2023-02-08T02:09:19.005Z,38.35
2023-02-08T02:11:45.759Z,37.95
2023-02-08T02:14:12.779Z,38.50
2023-02-08T02:16:39.580Z,38.35
2023-02-08T02:19:10.531Z,35.97
2023-02-08T02:21:46.302Z,37.17
2023-02-08T02:24:28.095Z,35.40
2023-02-08T02:26:57.515Z,37.40
2023-02-08T02:29:42.104Z,29.58
2023-02-08T02:32:14.322Z,28.60
2023-02-08T02:35:09.900Z,31.75
2023-02-08T02:38:05.917Z,29.88
2023-02-08T02:41:11.029Z,34.08
2023-02-08T02:43:52.284Z,30.27
2023-02-08T02:46:29.108Z,28.10
2023-02-08T02:48:55.801Z,30.63
2023-02-08T02:51:29.157Z,25.60
2023-02-08T02:54:15.674Z,26.90
2023-02-08T02:56:46.073Z,23.35
2023-02-08T02:59:14.487Z,28.87
2023-02-08T03:01:44.048Z,29.25
2023-02-08T03:04:39.937Z,32.20
2023-02-08T03:07:21.485Z,31.17
2023-02-08T03:10:11.224Z,36.08
2023-02-08T03:12:40.877Z,30.20
2023-02-08T03:15:32.353Z,30.95
2023-02-08T03:18:04.852Z,28.52
2023-02-08T03:20:39.489Z,28.65
2023-02-08T03:23:26.454Z,28.02
2023-02-08T03:26:11.380Z,21.53
2023-02-08T03:28:44.578Z,25.23
2023-02-08T03:31:30.131Z,20.67
2023-02-08T03:34:19.653Z,22.67
2023-02-08T03:36:53.814Z,20.38
2023-02-08T03:39:25.484Z,18.67
2023-02-08T03:41:55.716Z,19.52
2023-02-08T03:44:35.169Z,19.40
2023-02-08T03:47:05.457Z,16.33
2023-02-08T03:49:35.040Z,14.27
2023-02-08T03:52:05.630Z,12.17
2023-02-08T03:54:36.258Z,14.52
2023-02-08T03:57:12.662Z,11.65
2023-02-08T03:59:41.265Z,10.30
2023-02-08T04:02:12.391Z,12.65
2023-02-08T04:04:43.081Z,11.97
2023-02-08T04:07:09.903Z,15.38
2023-02-08T04:09:38.763Z,15.98
2023-02-08T04:12:06.083Z,13.27
2023-02-08T04:14:32.833Z,13.57
2023-02-08T04:16:59.630Z,8.87
2023-02-08T04:19:26.406Z,7.43
2023-02-08T04:21:53.254Z,12.75
2023-02-08T04:24:20.423Z,11.32
2023-02-08T04:26:47.601Z,8.27
2023-02-08T04:29:14.370Z,6.63
2023-02-08T04:31:41.276Z,9.02
2023-02-08T04:34:08.025Z,10.13
2023-02-08T04:36:34.744Z,7.70
2023-02-08T04:39:01.569Z,10.82
2023-02-08T04:41:28.337Z,7.33
2023-02-08T04:43:55.125Z,9.45
2023-02-08T04:46:22.105Z,9.43
2023-02-08T04:48:49.132Z,10.10
2023-02-08T04:51:16.053Z,11.70
2023-02-08T04:53:42.927Z,11.43
2023-02-08T04:56:09.699Z,12.30
2023-02-08T04:58:36.799Z,11.32
2023-02-08T05:01:07.945Z,8.10
2023-02-08T05:03:34.998Z,6.95
2023-02-08T05:06:01.794Z,11.60
2023-02-08T05:08:29.050Z,7.95
2023-02-08T05:10:55.797Z,6.43
2023-02-08T05:13:22.549Z,4.38
2023-02-08T05:15:49.333Z,5.80
2023-02-08T05:18:16.085Z,6.30
2023-02-08T05:20:43.019Z,7.60
2023-02-08T05:23:09.781Z,6.60
2023-02-08T05:25:38.112Z,7.93
2023-02-08T05:28:05.026Z,6.78
2023-02-08T05:30:31.841Z,8.33
2023-02-08T05:32:58.708Z,6.22
2023-02-08T05:35:25.461Z,7.78
2023-02-08T05:37:52.146Z,7.05
2023-02-08T05:40:18.872Z,7.18
2023-02-08T05:42:45.678Z,7.70
2023-02-08T05:45:13.093Z,8.20
2023-02-08T05:47:39.849Z,6.75
2023-02-08T05:50:06.696Z,6.57
2023-02-08T05:52:33.483Z,6.32
2023-02-08T05:55:00.243Z,9.53
2023-02-08T05:57:26.992Z,9.43
2023-02-08T05:59:53.719Z,6.85
2023-02-08T06:02:20.430Z,9.45
2023-02-08T06:04:47.178Z,7.60
2023-02-08T06:07:13.933Z,6.13
2023-02-08T06:09:40.682Z,7.82
2023-02-08T06:12:07.673Z,6.75
2023-02-08T06:14:34.365Z,7.43
2023-02-08T06:17:01.107Z,7.55
2023-02-08T06:19:27.881Z,7.47
2023-02-08T06:21:55.223Z,4.93
2023-02-08T06:24:22.005Z,8.02
2023-02-08T06:26:48.793Z,7.85
2023-02-08T06:29:18.568Z,9.98
2023-02-08T06:31:45.354Z,6.53
2023-02-08T06:34:12.165Z,6.47
2023-02-08T06:36:38.923Z,10.15
2023-02-08T06:39:05.663Z,5.60
2023-02-08T06:41:33.429Z,9.20
2023-02-08T06:44:01.388Z,6.10
2023-02-08T06:46:28.469Z,8.57
2023-02-08T06:48:56.957Z,12.80
2023-02-08T06:51:23.874Z,10.40
2023-02-08T06:53:50.958Z,7.72
2023-02-08T06:56:18.013Z,6.03
2023-02-08T06:58:44.680Z,7.22
2023-02-08T07:01:30.267Z,12.15
2023-02-08T07:04:08.483Z,8.52
2023-02-08T07:07:01.150Z,12.13
2023-02-08T07:09:44.072Z,10.90
2023-02-08T07:12:13.898Z,7.22
2023-02-08T07:14:53.857Z,6.80
2023-02-08T07:17:25.396Z,9.10
2023-02-08T07:20:22.144Z,9.02
2023-02-08T07:22:59.330Z,7.07
2023-02-08T07:25:26.244Z,9.07
2023-02-08T07:27:53.026Z,10.95
2023-02-08T07:30:19.929Z,7.50
2023-02-08T07:32:47.358Z,8.00
2023-02-08T07:35:14.257Z,12.47
2023-02-08T07:37:41.069Z,12.90
2023-02-08T07:40:08.232Z,9.02
2023-02-08T07:42:35.046Z,9.65
2023-02-08T07:45:01.833Z,10.73
2023-02-08T07:47:28.657Z,10.33
2023-02-08T07:49:55.361Z,11.55
2023-02-08T07:52:22.156Z,7.25
2023-02-08T07:54:48.970Z,10.90
2023-02-08T07:57:21.139Z,14.82
2023-02-08T07:59:48.144Z,11.33
2023-02-08T08:02:15.875Z,12.45
2023-02-08T08:04:43.311Z,11.98
2023-02-08T08:07:10.255Z,8.95
2023-02-08T08:09:37.053Z,8.80
2023-02-08T08:12:08.498Z,10.07
2023-02-08T08:14:36.253Z,9.30
2023-02-08T08:17:02.996Z,9.18
2023-02-08T08:19:29.754Z,7.55
2023-02-08T08:21:56.460Z,10.02
2023-02-08T08:24:23.137Z,8.03
2023-02-08T08:26:49.874Z,9.50
2023-02-08T08:29:16.621Z,10.52
2023-02-08T08:31:44.070Z,8.38
2023-02-08T08:34:10.885Z,8.57
2023-02-08T08:36:37.780Z,8.40
2023-02-08T08:39:04.538Z,9.95
2023-02-08T08:41:31.395Z,9.27
2023-02-08T08:43:58.204Z,8.68
2023-02-08T08:46:25.078Z,9.38
2023-02-08T08:48:53.167Z,10.77
2023-02-08T08:51:22.217Z,11.63
2023-02-08T08:53:49.052Z,10.25
2023-02-08T08:56:15.824Z,9.38
2023-02-08T08:58:43.611Z,11.43
2023-02-08T09:01:10.777Z,10.33
2023-02-08T09:03:37.781Z,9.80
2023-02-08T09:06:04.999Z,10.52
2023-02-08T09:08:32.146Z,9.77
2023-02-08T09:11:08.930Z,11.43
2023-02-08T09:13:35.969Z,10.63
2023-02-08T09:16:12.539Z,9.27
2023-02-08T09:18:39.678Z,10.70
2023-02-08T09:21:14.784Z,9.52
2023-02-08T09:23:41.612Z,11.85
2023-02-08T09:26:11.173Z,8.63
2023-02-08T09:28:38.014Z,8.95
2023-02-08T09:31:23.854Z,11.15
2023-02-08T09:33:52.357Z,11.32
2023-02-08T09:36:19.957Z,14.65
2023-02-08T09:38:49.452Z,9.97
2023-02-08T09:41:25.221Z,7.97
2023-02-08T09:44:10.287Z,8.70
2023-02-08T09:46:40.777Z,9.82
2023-02-08T09:49:14.497Z,12.95
2023-02-08T09:51:55.865Z,10.17
2023-02-08T09:54:32.011Z,8.57
2023-02-08T09:57:01.546Z,10.02
2023-02-08T09:59:32.029Z,10.45
2023-02-08T10:02:34.740Z,9.35
2023-02-08T10:05:08.493Z,10.57
2023-02-08T10:07:35.641Z,9.07
2023-02-08T10:10:06.206Z,10.95
2023-02-08T10:12:56.545Z,8.52
2023-02-08T10:15:35.438Z,10.50
2023-02-08T10:18:24.395Z,11.23
2023-02-08T10:21:14.042Z,10.82
2023-02-08T10:24:25.690Z,8.38
2023-02-08T10:26:58.564Z,10.40
2023-02-08T10:29:46.491Z,11.57
2023-02-08T10:32:35.575Z,9.03
2023-02-08T10:35:03.443Z,9.68
2023-02-08T10:37:35.085Z,10.77
2023-02-08T10:40:27.361Z,7.88
2023-02-08T10:43:03.269Z,8.68
2023-02-08T10:45:48.980Z,7.83
2023-02-08T10:48:20.899Z,5.88
2023-02-08T10:50:48.200Z,10.10
2023-02-08T10:53:20.415Z,8.23
2023-02-08T10:55:48.669Z,9.65
2023-02-08T10:58:20.389Z,9.17
2023-02-08T11:00:48.586Z,9.52
2023-02-08T11:03:25.474Z,7.75
2023-02-08T11:05:53.205Z,12.75
2023-02-08T11:08:22.425Z,7.15
2023-02-08T11:10:55.107Z,9.63
2023-02-08T11:13:51.943Z,9.25
2023-02-08T11:16:38.346Z,7.65
2023-02-08T11:19:07.957Z,9.48
2023-02-08T11:21:37.769Z,10.05
2023-02-08T11:24:16.551Z,9.63
2023-02-08T11:26:43.381Z,8.07
2023-02-08T11:29:23.166Z,7.68
2023-02-08T11:31:57.669Z,9.63
2023-02-08T11:34:35.694Z,8.10
2023-02-08T11:37:13.115Z,8.37
2023-02-08T11:39:43.140Z,9.65
2023-02-08T11:42:20.163Z,7.70
2023-02-08T11:44:47.328Z,7.45
2023-02-08T11:47:17.153Z,8.90
2023-02-08T11:49:54.567Z,9.57
2023-02-08T11:52:25.813Z,9.23
2023-02-08T11:54:54.385Z,9.60
2023-02-08T11:57:23.674Z,8.07
2023-02-08T12:00:10.333Z,8.38
2023-02-08T12:02:39.888Z,9.10
2023-02-08T12:05:13.970Z,9.90
2023-02-08T12:08:03.258Z,9.38
2023-02-08T12:10:32.737Z,8.73
2023-02-08T12:13:03.013Z,9.57
2023-02-08T12:15:58.216Z,11.03
2023-02-08T12:19:06.635Z,9.60
2023-02-08T12:21:42.958Z,8.35
2023-02-08T12:24:51.634Z,8.30
2023-02-08T12:27:43.464Z,9.80
2023-02-08T12:30:31.674Z,9.87
2023-02-08T12:33:12.064Z,8.68
2023-02-08T12:36:01.803Z,10.98
2023-02-08T12:39:19.074Z,7.55
2023-02-08T12:42:24.317Z,7.50
2023-02-08T12:45:17.540Z,7.30
2023-02-08T12:48:22.770Z,8.35
2023-02-08T12:50:55.725Z,9.02
2023-02-08T12:53:34.913Z,10.32
2023-02-08T12:56:07.173Z,11.02
2023-02-08T12:58:41.687Z,8.57
2023-02-08T13:01:14.244Z,9.02
2023-02-08T13:03:40.971Z,9.48
2023-02-08T13:06:17.030Z,9.57
2023-02-08T13:09:01.962Z,9.45
2023-02-08T13:11:40.254Z,8.30
2023-02-08T13:14:20.142Z,9.65
2023-02-08T13:16:50.653Z,7.80
2023-02-08T13:19:51.109Z,9.45
2023-02-08T13:22:39.619Z,7.82
2023-02-08T13:25:15.408Z,9.33
2023-02-08T13:27:42.604Z,8.75
2023-02-08T13:30:17.928Z,9.77
2023-02-08T13:32:46.130Z,8.90
2023-02-08T13:35:29.716Z,9.82
2023-02-08T13:38:03.132Z,10.93
2023-02-08T13:40:33.092Z,12.18
2023-02-08T13:43:09.181Z,10.15
2023-02-08T13:45:39.521Z,8.90
2023-02-08T13:48:15.094Z,7.93
2023-02-08T13:50:48.985Z,9.10
2023-02-08T13:53:17.576Z,9.77
2023-02-08T13:55:57.016Z,12.05
2023-02-08T13:58:42.517Z,10.63
2023-02-08T14:01:29.472Z,8.60
2023-02-08T14:04:08.210Z,8.20
2023-02-08T14:06:45.558Z,8.13
2023-02-08T14:09:20.017Z,8.98
2023-02-08T14:11:57.158Z,7.18
2023-02-08T14:14:29.322Z,9.85
2023-02-08T14:17:05.248Z,12.63
2023-02-08T14:19:36.902Z,9.80
2023-02-08T14:22:04.884Z,7.93
2023-02-08T14:24:38.004Z,12.27
2023-02-08T14:27:11.448Z,7.65
2023-02-08T14:29:38.317Z,10.03
2023-02-08T14:32:05.201Z,9.07
2023-02-08T14:34:35.627Z,10.23
2023-02-08T14:37:26.593Z,8.13
2023-02-08T14:40:28.538Z,10.52
2023-02-08T14:43:02.190Z,9.83
2023-02-08T14:45:37.154Z,7.15
2023-02-08T14:48:27.219Z,7.07
2023-02-08T14:51:02.372Z,12.93
2023-02-08T14:53:37.442Z,10.55
2023-02-08T14:56:10.284Z,9.93
2023-02-08T14:58:41.237Z,8.70
2023-02-08T15:01:14.461Z,8.23
2023-02-08T15:03:42.311Z,9.48
2023-02-08T15:06:49.789Z,9.45
2023-02-08T15:09:20.750Z,12.90
2023-02-08T15:12:22.873Z,9.00
2023-02-08T15:14:49.894Z,9.48
2023-02-08T15:17:38.626Z,9.27
2023-02-08T15:20:10.036Z,10.20
2023-02-08T15:22:39.988Z,8.83
2023-02-08T15:25:23.720Z,59.65
2023-02-08T15:27:59.816Z,14.35
2023-02-08T15:30:35.372Z,33.50
2023-02-08T15:33:13.712Z,21.38
2023-02-08T15:35:40.850Z,18.97
2023-02-08T15:38:16.811Z,20.27
2023-02-08T15:40:43.845Z,16.42
2023-02-08T15:43:13.806Z,17.75
2023-02-08T15:45:40.957Z,20.20
2023-02-08T15:48:07.972Z,33.83
2023-02-08T15:50:35.832Z,38.78
2023-02-08T15:53:07.152Z,31.15
2023-02-08T15:55:37.421Z,20.23
2023-02-08T15:58:16.291Z,14.35
2023-02-08T16:00:44.793Z,10.77
2023-02-08T16:03:20.509Z,11.30
2023-02-08T16:05:54.078Z,13.40
2023-02-08T16:08:27.989Z,8.18
2023-02-08T16:10:58.894Z,9.15
2023-02-08T16:13:30.934Z,9.47
2023-02-08T16:16:15.339Z,11.98
2023-02-08T16:18:50.309Z,13.93
2023-02-08T16:21:25.235Z,11.50
2023-02-08T16:23:59.417Z,10.68
2023-02-08T16:26:36.743Z,8.53
2023-02-08T16:29:05.792Z,11.18
2023-02-08T16:31:35.416Z,10.25
2023-02-08T16:34:06.214Z,9.27
2023-02-08T16:36:40.575Z,9.85
2023-02-08T16:39:30.230Z,8.63
2023-02-08T16:42:09.690Z,8.80
2023-02-08T16:45:00.102Z,7.68
2023-02-08T16:47:29.952Z,9.90
2023-02-08T16:49:56.837Z,9.45
2023-02-08T16:52:23.555Z,10.93
2023-02-08T16:54:50.477Z,9.38
2023-02-08T16:57:17.279Z,10.43
2023-02-08T16:59:44.041Z,11.43
2023-02-08T17:02:12.999Z,10.55
2023-02-08T17:04:40.092Z,9.87
2023-02-08T17:07:12.599Z,14.63
2023-02-08T17:09:39.564Z,11.02
2023-02-08T17:12:21.515Z,9.25
2023-02-08T17:14:49.869Z,12.43
2023-02-08T17:17:16.667Z,11.67
2023-02-08T17:19:44.501Z,14.43
2023-02-08T17:22:11.335Z,11.98
2023-02-08T17:24:39.326Z,17.38
2023-02-08T17:27:06.688Z,12.10
2023-02-08T17:29:33.579Z,11.47
2023-02-08T17:32:00.421Z,11.52
2023-02-08T17:34:27.765Z,12.15
2023-02-08T17:36:54.745Z,13.57
2023-02-08T17:39:22.016Z,11.93
2023-02-08T17:41:49.044Z,13.80
2023-02-08T17:44:16.066Z,16.77
2023-02-08T17:46:42.881Z,14.85
2023-02-08T17:49:09.692Z,13.32
2023-02-08T17:51:36.747Z,16.20
2023-02-08T17:54:05.042Z,16.63
2023-02-08T17:56:36.387Z,20.08
2023-02-08T17:59:05.345Z,18.55
2023-02-08T18:01:33.357Z,16.58
2023-02-08T18:04:00.997Z,13.02
2023-02-08T18:06:28.861Z,16.43
2023-02-08T18:08:55.918Z,12.35
2023-02-08T18:11:23.961Z,11.70
2023-02-08T18:13:53.123Z,13.35
2023-02-08T18:16:23.752Z,14.48
2023-02-08T18:18:50.893Z,12.70
2023-02-08T18:21:20.070Z,21.73
2023-02-08T18:23:47.693Z,21.17
2023-02-08T18:26:16.793Z,15.88
2023-02-08T18:28:44.887Z,19.52
2023-02-08T18:31:20.063Z,17.07
2023-02-08T18:33:49.696Z,18.45
2023-02-08T18:36:17.193Z,18.17
2023-02-08T18:38:45.715Z,13.40
2023-02-08T18:41:19.779Z,18.60
2023-02-08T18:43:47.511Z,17.87
2023-02-08T18:46:17.959Z,14.93
2023-02-08T18:48:45.517Z,13.02
2023-02-08T18:51:14.563Z,18.70
2023-02-08T18:53:42.298Z,18.30
2023-02-08T18:56:11.163Z,17.93
2023-02-08T18:58:38.466Z,16.58
2023-02-08T19:01:14.623Z,19.05
2023-02-08T19:03:42.242Z,19.00
2023-02-08T19:06:12.020Z,19.73
2023-02-08T19:08:41.463Z,18.07
2023-02-08T19:11:25.763Z,14.35
2023-02-08T19:13:55.138Z,15.98
2023-02-08T19:16:24.501Z,14.88
2023-02-08T19:18:53.081Z,17.38
2023-02-08T19:21:20.198Z,18.00
2023-02-08T19:23:47.890Z,17.70
2023-02-08T19:26:17.695Z,19.70
2023-02-08T19:28:44.798Z,19.13
2023-02-08T19:31:14.816Z,12.68
2023-02-08T19:33:44.857Z,16.37
2023-02-08T19:36:23.462Z,18.33
2023-02-08T19:38:52.911Z,16.67
2023-02-08T19:41:23.482Z,17.45
2023-02-08T19:43:50.261Z,16.85
2023-02-08T19:46:22.132Z,17.73
2023-02-08T19:48:50.623Z,17.48
2023-02-08T19:51:18.304Z,15.90
2023-02-08T19:53:45.803Z,14.32
2023-02-08T19:56:15.456Z,14.68
2023-02-08T19:58:43.034Z,15.57
2023-02-08T20:01:16.094Z,15.95
2023-02-08T20:03:43.586Z,16.17
2023-02-08T20:06:19.407Z,21.60
2023-02-08T20:08:49.054Z,16.75
2023-02-08T20:11:21.723Z,17.70
2023-02-08T20:13:49.977Z,25.30
2023-02-08T20:16:17.640Z,16.42
2023-02-08T20:18:44.836Z,21.40
2023-02-08T20:21:12.264Z,16.58
2023-02-08T20:23:39.562Z,18.97
2023-02-08T20:26:10.847Z,20.25
2023-02-08T20:28:40.224Z,14.02
2023-02-08T20:31:17.131Z,12.85
2023-02-08T20:33:43.976Z,13.60
2023-02-08T20:36:14.073Z,15.27
2023-02-08T20:38:41.128Z,18.40
2023-02-08T20:41:15.909Z,20.83
2023-02-08T20:43:44.454Z,24.67
2023-02-08T20:46:19.966Z,27.80
2023-02-08T20:48:47.774Z,24.73
2023-02-08T20:51:17.679Z,30.20
2023-02-08T20:53:45.755Z,24.05
2023-02-08T20:56:24.853Z,23.30
2023-02-08T20:58:53.640Z,28.88
2023-02-08T21:01:25.701Z,23.97
2023-02-08T21:03:54.623Z,27.42
2023-02-08T21:06:23.625Z,20.20
2023-02-08T21:08:52.057Z,19.52
2023-02-08T21:11:20.977Z,18.38
2023-02-08T21:13:49.557Z,21.00
2023-02-08T21:16:17.469Z,17.65
2023-02-08T21:18:44.415Z,15.50
2023-02-08T21:21:11.475Z,16.08
2023-02-08T21:23:38.488Z,13.88
2023-02-08T21:26:07.062Z,16.03
2023-02-08T21:28:34.180Z,14.93
2023-02-08T21:31:10.109Z,16.08
2023-02-08T21:33:37.119Z,20.13
2023-02-08T21:36:06.923Z,16.75
2023-02-08T21:38:33.698Z,22.90
2023-02-08T21:41:15.379Z,21.60
2023-02-08T21:43:42.178Z,17.52
2023-02-08T21:46:09.793Z,18.50
2023-02-08T21:48:55.621Z,16.50
2023-02-08T21:51:42.491Z,22.80
2023-02-08T21:54:32.265Z,21.33
2023-02-08T21:56:59.969Z,16.98
2023-02-08T21:59:27.178Z,19.63
2023-02-08T22:01:53.929Z,16.27
2023-02-08T22:04:20.708Z,20.60
2023-02-08T22:06:50.153Z,16.60
2023-02-08T22:09:17.317Z,19.10
2023-02-08T22:11:44.234Z,19.38
2023-02-08T22:14:12.356Z,18.80
2023-02-08T22:16:39.580Z,15.63
2023-02-08T22:19:07.176Z,18.13
2023-02-08T22:21:34.642Z,19.52
2023-02-08T22:24:01.509Z,15.98
2023-02-08T22:26:28.315Z,14.50
2023-02-08T22:28:55.203Z,16.33
2023-02-08T22:31:22.493Z,15.57
2023-02-08T22:33:52.325Z,14.38
2023-02-08T22:36:19.358Z,17.52
2023-02-08T22:38:46.118Z,20.52
2023-02-08T22:41:14.395Z,19.23
2023-02-08T22:43:41.233Z,15.55
2023-02-08T22:46:08.381Z,18.23
2023-02-08T22:48:35.346Z,17.35
2023-02-08T22:51:14.445Z,18.95
2023-02-08T22:53:41.666Z,14.60
2023-02-08T22:56:08.510Z,17.42
2023-02-08T22:58:35.602Z,20.50
2023-02-08T23:01:02.379Z,18.02
2023-02-08T23:03:29.161Z,17.15
2023-02-08T23:05:55.882Z,19.37
2023-02-08T23:08:22.693Z,16.60
2023-02-08T23:10:49.797Z,16.27
2023-02-08T23:13:16.711Z,16.35
2023-02-08T23:15:44.956Z,18.65
2023-02-08T23:18:12.113Z,18.60
2023-02-08T23:20:41.732Z,18.42
2023-02-08T23:23:08.517Z,18.95
2023-02-08T23:25:39.156Z,20.63
2023-02-08T23:28:07.170Z,26.30
2023-02-08T23:30:33.951Z,24.43
2023-02-08T23:33:00.818Z,25.65
2023-02-08T23:35:27.687Z,24.90
2023-02-08T23:41:56.224Z,20.38
2023-02-08T23:44:23.529Z,24.80
2023-02-08T23:46:50.322Z,29.25
2023-02-08T23:49:17.160Z,30.00
2023-02-08T23:51:44.652Z,20.67
2023-02-08T23:54:11.403Z,21.45
2023-02-08T23:56:38.198Z,25.33
2023-02-08T23:59:08.129Z,23.73
